Time;durP1;ratioP1;P1;durP2;ratioP2;P2;SDS_P1;SDS_P2;PMS_P1;PMS_P2;Temp;Humidity;BMP_temperature;BMP_pressure;BME280_temperature;BME280_humidity;BME280_pressure;Samples;Min_cycle;Max_cycle;Signal;HPM_P1;HPM_P2
2021/05/26 00:01:55;;;;;;;3.13;2.33;;;;;;;8.31;100.00;98625.69;5052943;28;20134;-74
2021/05/26 00:04:21;;;;;;;3.17;2.70;;;;;;;8.23;100.00;98619.91;5053534;28;20021;-73
2021/05/26 00:06:46;;;;;;;2.95;2.20;;;;;;;8.20;100.00;98614.97;5053717;28;20027;-75
2021/05/26 00:09:11;;;;;;;2.40;1.98;;;;;;;8.33;100.00;98618.06;5036101;28;20389;-74
2021/05/26 00:11:37;;;;;;;4.25;2.53;;;;;;;8.38;100.00;98620.84;5053922;28;20071;-74
2021/05/26 00:14:02;;;;;;;2.25;1.85;;;;;;;8.42;100.00;98616.50;5053275;28;20039;-74
2021/05/26 00:16:30;;;;;;;4.63;2.08;;;;;;;8.43;100.00;98612.69;5053060;28;20037;-74
2021/05/26 00:18:55;;;;;;;3.40;2.70;;;;;;;8.39;100.00;98617.03;5035263;28;20032;-73
2021/05/26 00:21:22;;;;;;;3.58;2.80;;;;;;;8.40;100.00;98613.22;5052629;28;20365;-74
2021/05/26 00:23:48;;;;;;;3.35;3.00;;;;;;;8.36;100.00;98617.56;5052662;28;20532;-74
2021/05/26 00:26:13;;;;;;;3.50;2.85;;;;;;;8.30;100.00;98610.44;5052961;28;20025;-74
2021/05/26 00:28:41;;;;;;;6.28;3.00;;;;;;;8.17;100.00;98602.72;5052781;28;20083;-75
2021/05/26 00:31:09;;;;;;;4.90;3.75;;;;;;;8.13;100.00;98601.59;5053246;28;20552;-74
2021/05/26 00:33:34;;;;;;;3.97;3.47;;;;;;;8.21;100.00;98597.53;5053783;28;20029;-75
2021/05/26 00:36:00;;;;;;;3.60;3.30;;;;;;;8.14;100.00;98592.34;5054082;28;20136;-74
2021/05/26 00:38:25;;;;;;;4.40;3.10;;;;;;;8.17;100.00;98602.72;5053854;28;20106;-74
2021/05/26 00:40:50;;;;;;;7.60;3.28;;;;;;;8.12;100.00;98599.13;5052812;28;20040;-74
2021/05/26 00:43:17;;;;;;;3.97;3.38;;;;;;;8.01;100.00;98598.25;5053806;28;20469;-74
2021/05/26 00:45:43;;;;;;;4.63;3.50;;;;;;;7.86;100.00;98600.88;5053206;28;20029;-75
2021/05/26 00:48:09;;;;;;;2.67;2.45;;;;;;;7.83;100.00;98596.75;5052549;28;20025;-74
2021/05/26 00:50:36;;;;;;;5.05;4.03;;;;;;;7.80;100.00;98597.28;5034984;28;20032;-75
2021/05/26 00:53:05;;;;;;;3.92;3.53;;;;;;;7.81;100.00;98593.47;5053084;28;20527;-77
2021/05/26 00:55:31;;;;;;;4.88;3.10;;;;;;;7.97;100.00;98597.13;5053026;28;20029;-74
2021/05/26 00:57:58;;;;;;;4.78;3.97;;;;;;;7.85;100.00;98600.06;5052944;28;20588;-74
2021/05/26 01:00:26;;;;;;;4.03;3.50;;;;;;;7.89;100.00;98600.34;5052640;28;20041;-74
2021/05/26 01:02:52;;;;;;;4.43;3.65;;;;;;;7.84;100.00;98597.56;5053301;28;20466;-74
2021/05/26 01:05:20;;;;;;;6.20;4.03;;;;;;;7.87;100.00;98597.06;5052612;28;20036;-74
2021/05/26 01:07:46;;;;;;;4.75;3.78;;;;;;;7.79;100.00;98594.84;5034359;28;20025;-74
2021/05/26 01:10:14;;;;;;;5.05;3.78;;;;;;;7.78;100.00;98601.34;5052404;28;20033;-76
2021/05/26 01:12:39;;;;;;;3.10;2.63;;;;;;;7.69;100.00;98590.13;5052336;28;20041;-76
2021/05/26 01:15:08;;;;;;;6.60;3.28;;;;;;;7.78;100.00;98594.00;5052737;28;20389;-74
2021/05/26 01:17:36;;;;;;;4.28;3.83;;;;;;;7.69;100.00;98592.84;5052557;28;20025;-74
2021/05/26 01:20:08;;;;;;;4.82;2.97;;;;;;;7.63;100.00;98593.06;5034416;28;20052;-78
2021/05/26 01:22:34;;;;;;;3.65;3.22;;;;;;;7.67;100.00;98586.84;5052131;28;20028;-73
2021/05/26 01:24:59;;;;;;;3.10;2.33;;;;;;;7.52;100.00;98584.81;5052312;28;20025;-74
2021/05/26 01:27:25;;;;;;;3.35;2.72;;;;;;;7.73;100.00;98579.53;5052246;28;20470;-73
2021/05/26 01:29:51;;;;;;;2.90;2.58;;;;;;;7.77;100.00;98573.28;5052577;28;20032;-74
2021/05/26 01:32:17;;;;;;;4.03;3.33;;;;;;;7.82;100.00;98564.34;5052695;28;20041;-74
2021/05/26 01:34:42;;;;;;;3.78;2.95;;;;;;;7.77;100.00;98576.00;5052532;28;20025;-76
2021/05/26 01:37:08;;;;;;;4.18;2.95;;;;;;;7.68;100.00;98574.03;5034508;28;20029;-74
2021/05/26 01:39:33;;;;;;;3.75;2.25;;;;;;;7.41;100.00;98569.50;5034696;28;20087;-74
2021/05/26 01:41:59;;;;;;;3.88;2.95;;;;;;;7.32;100.00;98581.94;5053072;28;20074;-74
2021/05/26 01:44:25;;;;;;;3.72;2.67;;;;;;;7.28;100.00;98577.25;5053278;28;20035;-75
2021/05/26 01:46:51;;;;;;;3.35;3.05;;;;;;;7.31;100.00;98579.47;5035913;28;20044;-74
2021/05/26 01:49:17;;;;;;;4.00;3.28;;;;;;;7.38;100.00;98575.47;5053516;28;20033;-75
2021/05/26 01:51:43;;;;;;;5.10;3.67;;;;;;;7.27;100.00;98573.72;5053443;28;20032;-75
2021/05/26 01:54:08;;;;;;;4.78;3.63;;;;;;;7.55;100.00;98575.31;5052573;28;20021;-75
2021/05/26 01:56:34;;;;;;;5.43;3.72;;;;;;;7.39;100.00;98570.84;5033680;28;20052;-74
2021/05/26 01:59:00;;;;;;;6.07;4.35;;;;;;;7.43;100.00;98575.50;5033798;28;20039;-74
2021/05/26 02:01:26;;;;;;;6.93;4.38;;;;;;;7.47;100.00;98568.47;5052011;28;20036;-74
2021/05/26 02:03:53;;;;;;;7.25;5.28;;;;;;;7.37;100.00;98564.81;5052348;28;20108;-75
2021/05/26 02:06:21;;;;;;;8.63;6.57;;;;;;;7.31;100.00;98561.25;5051959;28;20561;-76
2021/05/26 02:08:49;;;;;;;7.93;6.68;;;;;;;7.08;100.00;98572.44;5052126;28;20033;-74
2021/05/26 02:14:07;;;;;;;12.73;7.00;;;;;;;7.19;100.00;98557.06;5052317;28;20056;-76
2021/05/26 02:16:34;;;;;;;9.30;6.68;;;;;;;7.02;100.00;98559.88;5052832;28;20029;-76
2021/05/26 02:19:00;;;;;;;11.45;8.43;;;;;;;7.09;100.00;98560.50;5056737;28;20025;-75
2021/05/26 02:21:26;;;;;;;11.35;7.88;;;;;;;7.13;100.00;98558.91;5056194;28;20028;-75
2021/05/26 02:23:51;;;;;;;11.65;7.72;;;;;;;7.24;100.00;98549.75;5066268;28;20480;-81
2021/05/26 02:26:17;;;;;;;12.82;8.95;;;;;;;7.42;100.00;98543.91;5055756;28;20021;-76
2021/05/26 02:28:43;;;;;;;10.80;7.53;;;;;;;7.23;100.00;98552.75;5069258;28;20098;-75
2021/05/26 02:31:08;;;;;;;9.95;7.55;;;;;;;7.10;100.00;98545.81;5075508;28;20031;-76
2021/05/26 02:33:35;;;;;;;9.20;6.50;;;;;;;7.04;100.00;98538.69;5075145;28;20032;-74
2021/05/26 02:36:00;;;;;;;8.82;6.50;;;;;;;7.08;100.00;98545.25;5057667;28;20112;-77
2021/05/26 02:38:26;;;;;;;9.82;7.72;;;;;;;7.12;100.00;98540.94;5075428;28;20044;-75
2021/05/26 02:40:51;;;;;;;12.32;7.72;;;;;;;7.32;100.00;98543.84;5061626;28;20036;-75
2021/05/26 02:43:16;;;;;;;7.78;5.82;;;;;;;7.26;100.00;98547.59;5037208;28;20113;-77
2021/05/26 02:45:42;;;;;;;6.47;5.55;;;;;;;7.42;100.00;98543.91;5054715;28;20059;-75
2021/05/26 02:48:08;;;;;;;10.55;6.97;;;;;;;7.50;100.00;98543.44;5055168;28;20028;-75
2021/05/26 02:50:33;;;;;;;8.10;6.78;;;;;;;7.51;100.00;98534.19;5037961;28;20032;-76
2021/05/26 02:52:59;;;;;;;9.20;6.25;;;;;;;7.37;100.00;98540.31;5070766;28;20028;-75
2021/05/26 02:55:25;;;;;;;9.82;7.50;;;;;;;7.25;100.00;98532.34;5075604;28;20050;-76
2021/05/26 02:57:51;;;;;;;8.63;7.28;;;;;;;7.17;100.00;98526.56;5057399;28;20485;-77
2021/05/26 03:00:21;;;;;;;9.95;7.53;;;;;;;7.17;100.00;98535.56;5075209;28;20053;-76
2021/05/26 03:02:46;;;;;;;9.25;7.32;;;;;;;7.16;100.00;98533.91;5074585;28;20037;-76
2021/05/26 03:05:13;;;;;;;9.30;7.95;;;;;;;7.30;100.00;98532.38;5074774;28;20546;-76
2021/05/26 03:07:40;;;;;;;9.23;8.25;;;;;;;7.34;100.00;98535.41;5075069;28;20029;-75
2021/05/26 03:10:07;;;;;;;10.50;8.57;;;;;;;7.31;100.00;98534.03;5074418;28;20028;-77
2021/05/26 03:12:32;;;;;;;9.07;7.95;;;;;;;7.27;100.00;98532.06;5074280;28;20039;-76
2021/05/26 03:14:58;;;;;;;9.18;6.38;;;;;;;7.26;100.00;98533.19;5074922;28;20021;-75
2021/05/26 03:17:27;;;;;;;9.50;6.50;;;;;;;7.34;100.00;98533.50;5061507;28;20111;-76
2021/05/26 03:19:53;;;;;;;8.52;6.53;;;;;;;7.52;100.00;98535.81;5053943;28;20025;-76
2021/05/26 03:22:18;;;;;;;10.40;6.93;;;;;;;7.65;100.00;98528.28;5053628;28;20206;-75
2021/05/26 03:24:44;;;;;;;9.80;7.57;;;;;;;7.63;100.00;98538.63;5054246;28;20461;-76
2021/05/26 03:27:09;;;;;;;8.35;6.07;;;;;;;7.64;100.00;98529.38;5053490;28;20032;-76
2021/05/26 03:29:36;;;;;;;9.45;7.93;;;;;;;7.61;100.00;98538.06;5053000;28;20029;-75
2021/05/26 03:32:01;;;;;;;12.43;8.10;;;;;;;7.49;100.00;98538.25;5053482;28;20044;-76
2021/05/26 03:34:27;;;;;;;11.65;7.68;;;;;;;7.52;100.00;98522.22;5053540;28;20056;-76
2021/05/26 03:36:52;;;;;;;10.77;8.25;;;;;;;7.51;100.00;98534.19;5053637;28;20021;-76
2021/05/26 03:39:17;;;;;;;10.68;8.55;;;;;;;7.43;100.00;98536.56;5053652;28;20453;-76
2021/05/26 03:41:43;;;;;;;12.15;8.48;;;;;;;7.41;100.00;98531.41;5053147;28;20025;-75
2021/05/26 03:44:09;;;;;;;11.02;7.22;;;;;;;7.45;100.00;98529.81;5053614;28;20029;-75
2021/05/26 03:46:35;;;;;;;10.65;8.43;;;;;;;7.54;100.00;98522.78;5053936;28;20394;-75
2021/05/26 03:49:01;;;;;;;10.55;7.60;;;;;;;7.58;100.00;98527.72;5053774;28;20066;-78
2021/05/26 03:51:26;;;;;;;8.05;6.78;;;;;;;7.74;100.00;98532.16;5054893;28;20199;-77
2021/05/26 03:53:53;;;;;;;11.32;7.43;;;;;;;7.68;100.00;98533.19;5056975;28;20037;-76
2021/05/26 03:56:20;;;;;;;11.10;7.93;;;;;;;7.54;100.00;98527.41;5053993;28;20044;-76
2021/05/26 03:58:45;;;;;;;10.60;7.97;;;;;;;7.64;100.00;98523.94;5035730;28;20033;-76
2021/05/26 04:01:11;;;;;;;10.63;7.35;;;;;;;7.77;100.00;98531.66;5056393;28;20072;-74
2021/05/26 04:03:36;;;;;;;14.50;8.38;;;;;;;7.67;100.00;98532.41;5073268;28;20024;-74
2021/05/26 04:06:01;;;;;;;12.15;8.35;;;;;;;7.57;100.00;98528.78;5072944;28;20473;-74
2021/05/26 04:08:27;;;;;;;10.18;7.38;;;;;;;7.60;100.00;98528.25;5072961;28;20394;-74
2021/05/26 04:10:52;;;;;;;12.05;7.80;;;;;;;7.62;100.00;98531.53;5072954;28;20043;-75
2021/05/26 04:13:18;;;;;;;13.93;6.88;;;;;;;7.61;100.00;98532.63;5071086;28;20029;-74
2021/05/26 04:15:43;;;;;;;9.95;7.40;;;;;;;7.70;100.00;98528.34;5072791;28;20111;-76
2021/05/26 04:18:09;;;;;;;9.38;6.95;;;;;;;7.81;100.00;98528.13;5071017;28;20021;-75
2021/05/26 04:20:35;;;;;;;10.10;7.20;;;;;;;7.77;100.00;98526.22;5072752;28;20499;-73
2021/05/26 04:23:01;;;;;;;9.00;6.95;;;;;;;7.90;100.00;98526.53;5073721;28;20393;-76
2021/05/26 04:25:27;;;;;;;8.82;6.47;;;;;;;8.12;100.00;98518.19;5071486;28;20465;-76
2021/05/26 04:27:52;;;;;;;13.00;7.63;;;;;;;8.28;100.00;98532.75;5071232;28;20040;-74
2021/05/26 04:30:18;;;;;;;14.48;6.40;;;;;;;8.89;97.61;98528.31;5072474;28;20024;-74
2021/05/26 04:32:44;;;;;;;6.55;4.50;;;;;;;9.55;92.41;98523.69;5072497;28;20079;-74
2021/05/26 04:35:10;;;;;;;6.13;4.60;;;;;;;10.04;90.25;98526.59;5071643;28;20496;-81
2021/05/26 04:37:36;;;;;;;6.50;4.80;;;;;;;10.10;89.07;98522.75;5054771;28;20120;-82
2021/05/26 04:40:03;;;;;;;3.55;3.20;;;;;;;10.38;86.95;98527.59;5073879;28;20066;-82
2021/05/26 04:42:29;;;;;;;5.25;4.50;;;;;;;10.17;87.15;98518.69;5079662;28;20028;-77
2021/05/26 04:44:54;;;;;;;5.70;4.25;;;;;;;10.13;87.88;98520.31;5087047;28;20030;-86
2021/05/26 04:47:19;;;;;;;5.47;4.15;;;;;;;9.98;89.01;98524.97;5085442;28;20359;-75
2021/05/26 04:49:45;;;;;;;3.95;3.42;;;;;;;9.85;88.66;98525.56;5083175;28;20020;-76
2021/05/26 04:52:10;;;;;;;7.50;4.72;;;;;;;10.03;87.97;98514.03;5078138;28;20032;-77
2021/05/26 04:54:36;;;;;;;4.32;3.30;;;;;;;9.94;86.62;98521.16;5081294;28;20013;-79
2021/05/26 04:57:01;;;;;;;4.15;2.75;;;;;;;10.13;85.57;98519.47;5079459;28;20925;-79
2021/05/26 04:59:30;;;;;;;5.32;4.13;;;;;;;10.14;87.26;98519.25;5081635;28;20020;-85
2021/05/26 05:01:55;;;;;;;3.72;2.88;;;;;;;9.98;87.11;98511.31;5078038;28;20044;-84
2021/05/26 05:04:48;;;;;;;5.72;3.03;;;;;;;10.38;85.17;98519.41;5078810;28;20081;-81
2021/05/26 05:07:14;;;;;;;4.90;3.17;;;;;;;10.47;83.85;98506.78;5080386;28;20024;-81
2021/05/26 05:09:39;;;;;;;3.95;2.58;;;;;;;10.57;83.60;98519.59;5088305;28;20024;-85
2021/05/26 05:12:05;;;;;;;8.55;2.47;;;;;;;10.85;82.69;98523.53;5078290;28;20113;-85
2021/05/26 05:14:30;;;;;;;2.38;1.80;;;;;;;10.91;80.42;98519.66;5079164;28;20563;-78
2021/05/26 05:16:56;;;;;;;3.55;1.63;;;;;;;10.91;80.55;98530.59;5082526;28;20040;-74
2021/05/26 05:19:21;;;;;;;4.53;2.90;;;;;;;10.46;81.70;98532.47;5083000;28;20564;-75
2021/05/26 05:21:46;;;;;;;7.05;3.10;;;;;;;10.14;84.32;98529.34;5082694;28;20442;-76
2021/05/26 05:24:12;;;;;;;1.70;1.40;;;;;;;9.79;86.32;98526.66;5079935;28;20036;-74
2021/05/26 05:26:37;;;;;;;3.88;2.72;;;;;;;9.89;85.74;98529.38;5088568;28;20020;-78
2021/05/26 05:29:03;;;;;;;3.78;2.22;;;;;;;9.73;87.79;98527.75;5075387;28;20024;-80
2021/05/26 05:31:31;;;;;;;4.25;3.42;;;;;;;10.02;87.25;98524.13;5077694;28;20034;-83
2021/05/26 05:33:56;;;;;;;4.10;3.60;;;;;;;10.04;86.97;98529.34;5074483;28;20554;-74
2021/05/26 05:36:22;;;;;;;6.50;3.60;;;;;;;9.69;87.03;98528.31;5070877;28;20108;-75
2021/05/26 05:38:47;;;;;;;2.63;2.10;;;;;;;9.67;87.78;98533.25;5071556;28;20060;-75
2021/05/26 05:41:12;;;;;;;2.63;1.70;;;;;;;9.46;87.46;98528.88;5071307;28;20148;-76
2021/05/26 05:43:38;;;;;;;4.53;2.10;;;;;;;9.33;88.74;98524.00;5069982;28;20519;-74
2021/05/26 05:46:03;;;;;;;8.30;2.10;;;;;;;9.61;88.79;98531.63;5071510;28;20119;-77
2021/05/26 05:48:29;;;;;;;2.97;2.40;;;;;;;9.81;86.06;98524.47;5090719;28;20067;-74
2021/05/26 05:50:54;;;;;;;2.58;1.95;;;;;;;9.52;87.33;98527.78;5091614;28;20392;-75
2021/05/26 05:53:20;;;;;;;3.55;2.25;;;;;;;9.73;86.55;98525.03;5091543;28;20032;-74
2021/05/26 05:55:45;;;;;;;3.13;2.00;;;;;;;9.91;87.17;98528.00;5091765;28;20492;-74
2021/05/26 05:58:11;;;;;;;3.38;2.60;;;;;;;10.04;87.22;98537.53;5091354;28;20028;-78
2021/05/26 06:00:38;;;;;;;2.83;2.35;;;;;;;10.17;85.97;98526.88;5084729;28;20052;-74
2021/05/26 06:03:05;;;;;;;2.35;2.13;;;;;;;10.30;85.26;98520.00;5071516;28;20044;-77
2021/05/26 06:05:34;;;;;;;2.70;2.00;;;;;;;10.65;83.77;98521.75;5071944;28;20097;-75
2021/05/26 06:07:59;;;;;;;4.93;3.10;;;;;;;10.47;83.77;98527.84;5071622;28;20547;-74
2021/05/26 06:10:24;;;;;;;3.28;2.38;;;;;;;10.45;83.27;98525.41;5070420;28;20037;-74
2021/05/26 06:12:53;;;;;;;3.97;2.50;;;;;;;10.56;83.59;98513.28;5053716;28;20465;-74
2021/05/26 06:15:19;;;;;;;3.33;3.03;;;;;;;11.02;82.17;98524.00;5053996;28;20392;-74
2021/05/26 06:17:44;;;;;;;2.63;2.30;;;;;;;11.15;80.57;98531.56;5073779;28;20029;-75
2021/05/26 06:20:10;;;;;;;3.55;2.42;;;;;;;11.18;80.46;98529.06;5076502;28;20032;-76
2021/05/26 06:22:36;;;;;;;3.72;3.10;;;;;;;10.85;81.39;98520.78;5078854;28;20440;-75
2021/05/26 06:25:02;;;;;;;3.08;2.67;;;;;;;11.15;80.01;98526.09;5071863;28;20036;-78
2021/05/26 06:27:27;;;;;;;4.18;2.35;;;;;;;11.00;81.00;98527.00;5072502;28;20119;-77
2021/05/26 06:29:52;;;;;;;3.58;2.75;;;;;;;10.89;80.74;98525.44;5072235;28;20111;-75
2021/05/26 06:32:18;;;;;;;4.25;3.15;;;;;;;10.63;83.14;98523.94;5062176;28;20178;-74
2021/05/26 06:34:44;;;;;;;4.13;2.92;;;;;;;11.12;81.73;98529.41;5061221;28;20031;-74
2021/05/26 06:37:09;;;;;;;4.55;3.60;;;;;;;11.44;79.05;98526.94;5061130;28;20037;-74
2021/05/26 06:39:34;;;;;;;4.70;3.95;;;;;;;11.31;79.64;98530.31;5059752;28;20024;-74
2021/05/26 06:42:00;;;;;;;3.45;2.58;;;;;;;11.47;78.28;98531.84;5042328;28;20028;-74
2021/05/26 06:44:25;;;;;;;2.90;2.60;;;;;;;11.52;78.13;98526.34;5060388;28;20416;-74
2021/05/26 06:46:51;;;;;;;3.67;2.33;;;;;;;11.99;76.53;98530.31;5058665;28;20031;-75
2021/05/26 06:49:16;;;;;;;11.27;3.05;;;;;;;11.55;77.44;98523.03;5061041;28;20019;-73
2021/05/26 06:51:41;;;;;;;2.78;2.28;;;;;;;11.58;78.17;98530.66;5059457;28;20035;-74
2021/05/26 06:54:07;;;;;;;3.08;2.38;;;;;;;11.11;79.31;98533.22;5043815;28;20512;-74
2021/05/26 06:56:33;;;;;;;3.83;2.33;;;;;;;11.35;78.80;98531.41;5058062;28;20128;-74
2021/05/26 06:58:59;;;;;;;2.45;2.25;;;;;;;11.50;78.49;98524.97;5060411;28;20032;-76
2021/05/26 07:01:25;;;;;;;3.08;2.05;;;;;;;11.73;77.60;98527.81;5070519;28;20048;-74
2021/05/26 07:03:50;;;;;;;5.35;2.70;;;;;;;12.11;77.24;98517.84;5091742;28;20502;-74
2021/05/26 07:06:16;;;;;;;4.70;2.70;;;;;;;11.98;76.99;98515.78;5094737;28;20123;-74
2021/05/26 07:08:41;;;;;;;4.60;2.20;;;;;;;11.98;76.82;98513.03;5094491;28;20028;-74
2021/05/26 07:11:07;;;;;;;4.93;2.80;;;;;;;12.08;76.59;98521.16;5093997;28;20040;-74
2021/05/26 07:13:32;;;;;;;5.53;2.35;;;;;;;12.09;76.46;98516.50;5095595;28;20499;-76
2021/05/26 07:15:57;;;;;;;2.40;2.17;;;;;;;12.63;73.57;98510.59;5095677;28;20100;-74
2021/05/26 07:18:23;;;;;;;2.70;2.20;;;;;;;12.48;73.85;98497.06;5094586;28;20132;-75
2021/05/26 07:20:49;;;;;;;2.83;2.58;;;;;;;12.62;74.31;98507.06;5094836;28;20028;-76
2021/05/26 07:23:17;;;;;;;3.33;2.50;;;;;;;12.47;74.75;98506.44;5096365;28;20472;-76
2021/05/26 07:25:42;;;;;;;6.85;3.72;;;;;;;12.72;73.73;98503.31;5094767;28;20130;-75
2021/05/26 07:28:08;;;;;;;2.97;2.63;;;;;;;12.92;73.77;98497.56;5094410;28;20115;-76
2021/05/26 07:30:34;;;;;;;3.15;2.50;;;;;;;12.64;73.97;98496.59;5093883;28;20073;-76
2021/05/26 07:32:59;;;;;;;6.45;2.65;;;;;;;12.57;74.31;98493.38;5095800;28;20785;-76
2021/05/26 07:35:25;;;;;;;3.90;2.60;;;;;;;12.35;74.64;98482.16;5096078;28;20036;-74
2021/05/26 07:37:50;;;;;;;3.25;2.50;;;;;;;12.80;73.81;98488.97;5097668;28;20016;-76
2021/05/26 07:40:16;;;;;;;2.90;2.58;;;;;;;12.74;73.83;98481.91;5102380;28;20024;-75
2021/05/26 07:42:42;;;;;;;4.35;3.03;;;;;;;13.23;72.62;98486.94;5094286;28;20402;-74
2021/05/26 07:45:08;;;;;;;4.82;2.25;;;;;;;13.05;72.08;98485.84;5081539;28;20090;-77
2021/05/26 07:47:35;;;;;;;3.75;2.00;;;;;;;13.05;71.93;98480.34;5081855;28;20058;-74
2021/05/26 07:50:00;;;;;;;3.20;2.13;;;;;;;13.83;69.62;98483.16;5082085;28;20017;-73
2021/05/26 07:52:28;;;;;;;2.50;2.15;;;;;;;13.89;70.17;98478.38;5082264;28;20020;-75
2021/05/26 07:54:53;;;;;;;3.53;2.25;;;;;;;14.10;68.47;98478.78;5081952;28;20110;-78
2021/05/26 07:57:19;;;;;;;3.80;2.40;;;;;;;14.08;67.91;98475.53;5084350;28;20111;-75
2021/05/26 07:59:45;;;;;;;4.22;1.92;;;;;;;13.89;68.10;98473.69;5081684;28;20020;-77
2021/05/26 08:02:13;;;;;;;2.50;2.00;;;;;;;14.47;66.51;98467.63;5063043;28;20052;-75
2021/05/26 08:04:40;;;;;;;3.72;2.28;;;;;;;15.92;62.41;98478.97;5057776;28;20021;-76
2021/05/26 08:07:08;;;;;;;3.17;1.92;;;;;;;15.97;61.17;98472.50;5060243;28;20388;-75
2021/05/26 08:09:34;;;;;;;13.93;2.67;;;;;;;16.07;59.38;98466.69;5043513;28;20032;-74
2021/05/26 08:11:59;;;;;;;2.13;2.00;;;;;;;17.19;57.73;98466.97;5060654;28;20021;-75
2021/05/26 08:14:25;;;;;;;2.80;2.30;;;;;;;16.87;56.56;98469.06;5062555;28;20054;-76
2021/05/26 08:16:50;;;;;;;2.92;2.25;;;;;;;17.41;56.69;98459.31;5060704;28;20021;-75
2021/05/26 08:19:16;;;;;;;4.50;2.58;;;;;;;17.75;55.35;98458.44;5043120;28;20198;-76
2021/05/26 08:21:42;;;;;;;2.80;2.10;;;;;;;18.94;52.32;98459.03;5065866;28;20024;-75
2021/05/26 08:24:08;;;;;;;2.38;2.08;;;;;;;18.23;52.58;98460.88;5042428;28;20021;-74
2021/05/26 08:26:35;;;;;;;2.50;2.28;;;;;;;18.22;51.96;98458.44;5062618;28;20020;-74
2021/05/26 08:29:01;;;;;;;4.18;2.25;;;;;;;18.66;51.04;98460.69;5062736;28;20028;-77
2021/05/26 08:31:26;;;;;;;2.50;2.10;;;;;;;19.19;49.87;98454.41;5062815;28;20129;-74
2021/05/26 08:33:52;;;;;;;6.00;2.40;;;;;;;19.08;50.39;98445.69;5066498;28;20488;-75
2021/05/26 08:36:17;;;;;;;2.15;1.95;;;;;;;18.79;51.68;98447.72;5045161;28;20482;-75
2021/05/26 08:38:43;;;;;;;6.50;2.15;;;;;;;19.35;50.48;98451.84;5061347;28;20017;-75
2021/05/26 08:41:11;;;;;;;2.83;2.33;;;;;;;19.85;48.51;98446.13;5061509;28;20375;-79
2021/05/26 08:43:41;;;;;;;3.08;1.95;;;;;;;19.97;46.13;98446.16;5055722;28;20036;-76
2021/05/26 08:46:07;;;;;;;2.72;1.92;;;;;;;19.39;49.40;98447.22;5057651;28;20028;-77
2021/05/26 08:48:34;;;;;;;2.17;1.90;;;;;;;19.55;48.97;98437.94;5083850;28;22284;-75
2021/05/26 08:51:01;;;;;;;2.13;1.65;;;;;;;20.36;46.70;98437.16;5071711;28;20111;-74
2021/05/26 08:53:27;;;;;;;2.45;2.03;;;;;;;20.28;46.04;98436.13;5054094;28;20036;-73
2021/05/26 08:55:53;;;;;;;1.50;1.40;;;;;;;20.93;43.82;98430.59;5072161;28;20021;-75
2021/05/26 08:58:18;;;;;;;1.92;1.80;;;;;;;21.71;41.69;98434.50;5054010;28;20024;-76
2021/05/26 09:00:45;;;;;;;2.67;1.70;;;;;;;20.89;43.59;98421.38;5080277;28;20105;-74
2021/05/26 09:03:10;;;;;;;3.47;1.40;;;;;;;19.59;45.79;98426.97;5091352;28;20032;-75
2021/05/26 09:05:37;;;;;;;2.55;1.58;;;;;;;19.72;46.07;98423.88;5062428;28;20035;-74
2021/05/26 09:08:17;;;;;;;1.77;1.27;;;;;;;21.08;43.02;98419.56;5069959;28;20433;-73
2021/05/26 09:10:59;;;;;;;2.10;1.67;;;;;;;21.77;41.71;98416.38;5063124;28;20496;-73
2021/05/26 09:13:38;;;;;;;2.50;1.23;;;;;;;20.56;43.00;98402.06;5056209;28;20043;-73
2021/05/26 09:16:22;;;;;;;1.20;1.10;;;;;;;20.14;43.19;98407.84;5059363;28;20123;-72
2021/05/26 09:19:02;;;;;;;2.97;1.23;;;;;;;19.78;45.08;98405.03;5057684;28;20024;-74
2021/05/26 09:21:50;;;;;;;1.95;1.30;;;;;;;20.75;41.91;98389.19;5039450;28;20029;-74
2021/05/26 09:24:18;;;;;;;1.13;1.02;;;;;;;19.42;43.18;98393.84;5070275;28;20134;-73
2021/05/26 09:26:58;;;;;;;1.63;0.50;;;;;;;19.71;42.32;98393.69;5070131;28;20028;-73
2021/05/26 09:29:37;;;;;;;1.08;0.80;;;;;;;20.18;42.18;98397.66;5052097;28;20017;-75
2021/05/26 09:32:25;;;;;;;1.08;0.80;;;;;;;20.46;41.66;98380.31;5072822;28;20093;-75
2021/05/26 09:34:52;;;;;;;3.40;1.67;;;;;;;20.75;41.32;98378.06;5071001;28;20013;-74
2021/05/26 09:37:22;;;;;;;2.58;1.10;;;;;;;19.51;43.81;98375.16;5079003;28;20024;-73
2021/05/26 09:39:51;;;;;;;1.30;1.02;;;;;;;20.41;41.04;98366.66;5090744;28;20027;-74
2021/05/26 09:42:36;;;;;;;0.63;0.60;;;;;;;20.55;38.24;98361.56;5076017;28;20035;-75
2021/05/26 09:45:18;;;;;;;3.95;0.80;;;;;;;20.35;39.36;98363.31;5050438;28;20037;-74
2021/05/26 09:47:49;;;;;;;2.22;0.90;;;;;;;21.68;37.07;98360.03;5050113;28;20086;-74
2021/05/26 09:50:17;;;;;;;1.52;1.08;;;;;;;21.59;37.72;98355.78;5050421;28;20792;-81
2021/05/26 09:53:01;;;;;;;2.25;0.80;;;;;;;21.43;37.22;98346.59;5050599;28;20025;-76
2021/05/26 09:55:29;;;;;;;1.80;0.70;;;;;;;21.94;37.60;98340.03;5050438;28;20108;-75
2021/05/26 09:57:55;;;;;;;1.90;0.82;;;;;;;20.61;39.78;98341.47;5049900;28;20116;-75
2021/05/26 10:00:21;;;;;;;2.35;0.52;;;;;;;22.00;36.59;98338.59;5037045;28;20094;-75
2021/05/26 10:02:48;;;;;;;3.15;0.50;;;;;;;21.34;37.77;98333.69;5068671;28;20405;-74
2021/05/26 10:05:18;;;;;;;1.42;0.77;;;;;;;22.51;36.50;98319.88;5069734;28;20021;-76
2021/05/26 10:07:49;;;;;;;0.57;0.57;;;;;;;23.07;35.61;98330.66;5071918;28;20023;-77
2021/05/26 10:10:14;;;;;;;3.05;0.52;;;;;;;22.64;36.21;98324.16;5071673;28;20028;-79
2021/05/26 10:12:40;;;;;;;0.93;0.40;;;;;;;21.21;37.18;98312.63;5070769;28;20090;-75
2021/05/26 10:15:11;;;;;;;0.85;0.45;;;;;;;21.94;36.49;98305.78;5068860;28;20033;-77
2021/05/26 10:17:40;;;;;;;1.13;0.50;;;;;;;21.85;36.87;98306.75;5074274;28;20024;-74
2021/05/26 10:20:09;;;;;;;1.20;0.43;;;;;;;20.21;39.79;98301.69;5082016;28;20036;-74
2021/05/26 10:22:36;;;;;;;4.22;0.93;;;;;;;20.78;40.16;98295.88;5081055;28;20392;-81
2021/05/26 10:25:05;;;;;;;0.52;0.43;;;;;;;22.85;37.19;98295.91;5079344;28;20127;-74
2021/05/26 10:27:36;;;;;;;1.60;0.50;;;;;;;20.87;39.48;98296.53;5076901;28;20021;-75
2021/05/26 10:30:08;;;;;;;0.85;0.50;;;;;;;20.21;41.21;98280.28;5078007;28;20070;-80
2021/05/26 10:32:53;;;;;;;1.60;0.50;;;;;;;18.66;45.95;98283.31;5079329;28;20633;-74
2021/05/26 10:35:20;;;;;;;0.50;0.43;;;;;;;18.74;45.34;98282.41;5080547;28;20012;-74
2021/05/26 10:37:46;;;;;;;1.20;0.73;;;;;;;18.45;45.88;98257.56;5079721;28;20032;-86
2021/05/26 10:40:30;;;;;;;1.05;0.65;;;;;;;19.37;44.83;98263.63;5085128;28;20067;-81
2021/05/26 10:42:56;;;;;;;0.45;0.45;;;;;;;18.77;46.65;98265.09;5082653;28;20028;-74
2021/05/26 10:45:34;;;;;;;1.80;0.90;;;;;;;18.81;46.70;98265.22;5085441;28;20446;-85
2021/05/26 10:48:00;;;;;;;4.43;1.42;;;;;;;17.96;48.09;98253.69;5084393;28;20115;-92
2021/05/26 10:50:48;;;;;;;2.08;0.70;;;;;;;17.86;49.11;98252.13;5083840;28;20123;-75
2021/05/26 10:53:16;;;;;;;2.85;0.73;;;;;;;18.04;48.81;98247.28;5087249;28;20464;-74
2021/05/26 10:55:53;;;;;;;2.67;0.55;;;;;;;18.10;49.60;98245.94;5082786;28;20491;-76
2021/05/26 10:58:34;;;;;;;0.90;0.60;;;;;;;17.87;49.45;98242.69;5082278;28;20016;-76
2021/05/26 11:01:03;;;;;;;2.75;1.02;;;;;;;17.98;48.53;98238.34;5074671;28;20056;-75
2021/05/26 11:03:33;;;;;;;0.68;0.40;;;;;;;18.36;48.73;98237.41;5061135;28;20957;-82
2021/05/26 11:06:04;;;;;;;4.85;0.77;;;;;;;18.28;48.39;98230.81;5042671;28;20115;-75
2021/05/26 11:08:45;;;;;;;1.42;1.25;;;;;;;17.96;48.24;98224.06;5063367;28;20027;-74
2021/05/26 11:11:34;;;;;;;4.13;1.30;;;;;;;17.81;49.01;98221.88;5063296;28;20024;-75
2021/05/26 11:14:16;;;;;;;3.25;1.08;;;;;;;18.09;48.82;98220.22;5062657;28;20056;-75
2021/05/26 11:16:47;;;;;;;3.03;0.80;;;;;;;18.27;48.72;98218.09;5064576;28;20047;-75
2021/05/26 11:19:24;;;;;;;3.78;0.88;;;;;;;18.78;47.60;98221.56;5065310;28;20028;-74
2021/05/26 11:22:15;;;;;;;1.25;0.85;;;;;;;18.43;48.14;98209.97;5073670;28;20021;-75
2021/05/26 11:24:43;;;;;;;0.60;0.60;;;;;;;18.57;47.99;98205.00;5048908;28;20025;-76
2021/05/26 11:27:16;;;;;;;2.95;0.93;;;;;;;19.00;47.06;98210.88;5044329;28;20027;-75
2021/05/26 11:29:52;;;;;;;0.60;0.60;;;;;;;18.61;47.41;98189.28;5062004;28;20020;-74
2021/05/26 11:32:20;;;;;;;1.85;0.95;;;;;;;18.87;47.11;98191.78;5061405;28;20748;-74
2021/05/26 11:34:48;;;;;;;2.03;0.65;;;;;;;18.99;46.44;98189.84;5043710;28;20469;-75
2021/05/26 11:37:40;;;;;;;1.23;0.70;;;;;;;18.76;47.17;98183.13;5079230;28;20050;-77
2021/05/26 11:40:17;;;;;;;1.23;0.98;;;;;;;19.66;44.75;98175.44;5060913;28;20075;-74